Time;durP1;ratioP1;P1;durP2;ratioP2;P2;SDS_P1;SDS_P2;PMS_P1;PMS_P2;Temp;Humidity;BMP_temperature;BMP_pressure;BME280_temperature;BME280_humidity;BME280_pressure;Samples;Min_cycle;Max_cycle;Signal;HPM_P1;HPM_P2
2023/04/21 00:00:42;;;;;;;5.18;3.53;;;20.00;58.50;;;;;;4965311;28;20194;-49
2023/04/21 00:03:12;;;;;;;3.63;3.33;;;20.00;58.50;;;;;;4986988;28;20201;-50
2023/04/21 00:05:43;;;;;;;4.35;3.95;;;20.00;58.50;;;;;;4982064;28;20195;-49
2023/04/21 00:08:14;;;;;;;4.05;3.65;;;20.00;58.50;;;;;;4972036;28;20198;-50
2023/04/21 00:10:46;;;;;;;4.10;3.65;;;20.00;58.50;;;;;;4982653;28;20193;-48
2023/04/21 00:13:17;;;;;;;4.93;3.90;;;20.00;58.50;;;;;;4992924;28;20228;-49
2023/04/21 00:15:48;;;;;;;4.57;4.18;;;20.00;58.50;;;;;;4982162;28;20225;-49
2023/04/21 00:18:19;;;;;;;4.70;4.28;;;20.00;58.50;;;;;;4973172;28;20544;-51
2023/04/21 00:20:49;;;;;;;5.25;4.20;;;20.00;58.50;;;;;;4973212;28;20217;-48
2023/04/21 00:23:20;;;;;;;5.38;4.35;;;20.00;58.50;;;;;;4973392;28;20284;-48
2023/04/21 00:25:53;;;;;;;4.93;4.22;;;20.00;58.60;;;;;;4972462;28;20656;-48
2023/04/21 00:28:23;;;;;;;4.47;4.07;;;20.00;58.50;;;;;;4972598;28;20203;-50
2023/04/21 00:30:54;;;;;;;5.88;4.07;;;20.00;58.50;;;;;;4972618;28;20194;-49
2023/04/21 00:33:25;;;;;;;4.95;4.13;;;20.00;58.50;;;;;;4983342;28;20236;-47
2023/04/21 00:35:57;;;;;;;4.90;4.30;;;20.00;58.50;;;;;;4967705;28;20248;-51
2023/04/21 00:38:28;;;;;;;6.10;4.80;;;20.00;58.50;;;;;;4972983;28;20204;-47
2023/04/21 00:41:01;;;;;;;5.45;4.80;;;20.00;58.50;;;;;;4967839;28;20198;-48
2023/04/21 00:43:32;;;;;;;6.38;5.15;;;20.00;58.50;;;;;;4973046;28;20699;-51
2023/04/21 00:46:05;;;;;;;6.68;4.97;;;20.00;58.50;;;;;;4971856;28;20202;-50
2023/04/21 00:48:36;;;;;;;6.25;5.15;;;20.00;58.50;;;;;;4972826;28;20198;-49
2023/04/21 00:51:06;;;;;;;7.72;4.90;;;20.00;58.60;;;;;;4972742;28;20190;-49
2023/04/21 00:53:37;;;;;;;5.35;4.50;;;20.00;58.60;;;;;;4956558;28;20226;-48
2023/04/21 00:56:10;;;;;;;5.80;5.15;;;20.10;58.60;;;;;;4964075;28;20272;-51
2023/04/21 00:58:44;;;;;;;6.00;4.65;;;20.00;58.60;;;;;;4973039;28;20213;-48
2023/04/21 01:01:16;;;;;;;8.18;4.97;;;20.00;58.60;;;;;;4972062;28;20706;-49
2023/04/21 01:03:47;;;;;;;6.85;4.90;;;20.10;58.70;;;;;;4990714;28;20217;-48
2023/04/21 01:06:17;;;;;;;6.78;5.30;;;20.10;58.70;;;;;;4980690;28;20281;-47
2023/04/21 01:08:49;;;;;;;7.35;5.38;;;20.10;58.70;;;;;;4972763;28;20209;-48
2023/04/21 01:11:22;;;;;;;5.78;4.85;;;20.10;58.70;;;;;;4972007;28;20198;-49
2023/04/21 01:13:55;;;;;;;6.32;5.47;;;20.10;58.70;;;;;;4971657;28;20229;-50
2023/04/21 01:16:26;;;;;;;6.85;5.57;;;20.10;58.90;;;;;;4972081;28;20225;-50
2023/04/21 01:18:57;;;;;;;6.90;4.88;;;20.10;58.90;;;;;;4972279;28;20673;-52
2023/04/21 01:21:30;;;;;;;5.30;4.78;;;20.10;58.90;;;;;;4972252;28;20249;-50
2023/04/21 01:24:03;;;;;;;6.60;4.80;;;20.10;58.80;;;;;;4972685;28;20587;-49
2023/04/21 01:26:33;;;;;;;7.47;5.20;;;20.10;58.90;;;;;;4971016;28;20194;-53
2023/04/21 01:29:04;;;;;;;6.63;5.28;;;20.10;58.90;;;;;;4964107;28;20595;-50
2023/04/21 01:31:35;;;;;;;6.15;4.95;;;20.10;58.80;;;;;;4968916;28;20200;-50
2023/04/21 01:34:07;;;;;;;6.15;5.20;;;20.10;58.90;;;;;;4991258;28;20305;-50
2023/04/21 01:36:38;;;;;;;6.68;5.35;;;20.10;59.00;;;;;;4977883;28;20226;-48
2023/04/21 01:39:11;;;;;;;5.93;4.60;;;20.10;59.10;;;;;;4971034;28;20194;-49
2023/04/21 01:41:41;;;;;;;6.70;5.50;;;20.10;59.20;;;;;;4971743;28;20190;-51
2023/04/21 01:44:12;;;;;;;6.82;5.70;;;20.10;59.10;;;;;;4972365;28;20218;-49
2023/04/21 01:46:43;;;;;;;5.78;4.90;;;20.10;59.10;;;;;;4971785;28;20206;-49
2023/04/21 01:49:13;;;;;;;6.65;5.20;;;20.10;59.10;;;;;;4971958;28;20202;-50
2023/04/21 01:51:44;;;;;;;5.45;4.93;;;20.10;59.10;;;;;;4967636;28;20198;-50
2023/04/21 01:54:17;;;;;;;5.95;5.25;;;20.10;59.10;;;;;;4971431;28;20657;-51
2023/04/21 01:56:48;;;;;;;6.57;5.28;;;20.20;59.20;;;;;;4974333;28;20218;-50
2023/04/21 01:59:18;;;;;;;5.80;5.22;;;20.10;59.10;;;;;;4972240;28;20194;-50
2023/04/21 02:01:49;;;;;;;6.07;5.22;;;20.10;59.00;;;;;;4974376;28;20194;-47
2023/04/21 02:04:19;;;;;;;7.10;5.50;;;20.20;59.10;;;;;;4990828;28;20275;-50
2023/04/21 02:06:50;;;;;;;6.25;5.30;;;20.20;59.10;;;;;;4978811;28;20194;-48
2023/04/21 02:09:23;;;;;;;7.13;5.60;;;20.20;59.20;;;;;;4971303;28;20202;-47
2023/04/21 02:11:53;;;;;;;7.68;5.40;;;20.20;59.10;;;;;;4972016;28;20205;-50
2023/04/21 02:14:24;;;;;;;6.32;5.28;;;20.20;59.20;;;;;;4971379;28;20272;-47
2023/04/21 02:16:54;;;;;;;6.10;4.97;;;20.10;59.10;;;;;;4972211;28;20226;-48
2023/04/21 02:19:25;;;;;;;5.57;5.03;;;20.20;59.70;;;;;;4982042;28;20194;-47
2023/04/21 02:21:56;;;;;;;5.80;4.78;;;20.20;59.20;;;;;;4977216;28;20296;-49
2023/04/21 02:24:28;;;;;;;5.78;4.95;;;20.20;59.20;;;;;;4971286;28;20234;-51
2023/04/21 02:26:59;;;;;;;6.53;5.25;;;20.10;59.20;;;;;;4970977;28;20591;-47
2023/04/21 02:29:30;;;;;;;7.68;6.15;;;20.20;59.30;;;;;;4959356;28;20210;-49
2023/04/21 02:32:01;;;;;;;7.15;5.68;;;20.20;59.30;;;;;;4979981;28;20209;-48
2023/04/21 02:34:31;;;;;;;7.07;5.82;;;20.20;60.00;;;;;;4990639;28;20225;-54
2023/04/21 02:37:05;;;;;;;6.63;5.85;;;20.20;59.40;;;;;;4977629;28;20592;-49
2023/04/21 02:39:37;;;;;;;7.47;6.40;;;20.20;59.40;;;;;;4971293;28;20194;-51
2023/04/21 02:42:08;;;;;;;5.97;5.38;;;20.20;59.40;;;;;;4971393;28;20663;-51
2023/04/21 02:44:41;;;;;;;6.38;5.70;;;20.20;59.50;;;;;;4972007;28;20230;-52
2023/04/21 02:47:12;;;;;;;6.07;5.28;;;20.20;59.40;;;;;;4967525;28;20186;-49
2023/04/21 02:49:46;;;;;;;6.13;5.47;;;20.20;59.40;;;;;;4971606;28;20202;-52
2023/04/21 02:52:16;;;;;;;6.65;5.22;;;20.20;59.30;;;;;;4974163;28;20198;-51
2023/04/21 02:54:49;;;;;;;5.28;4.78;;;20.20;59.30;;;;;;4975132;28;20222;-51
2023/04/21 02:57:20;;;;;;;6.13;5.53;;;20.20;59.30;;;;;;4974628;28;20226;-49
2023/04/21 02:59:50;;;;;;;7.40;5.53;;;20.20;59.30;;;;;;4974107;28;20197;-48
2023/04/21 03:02:21;;;;;;;6.45;5.30;;;20.20;59.40;;;;;;4982118;28;20205;-51
2023/04/21 03:04:52;;;;;;;6.28;5.50;;;20.20;59.40;;;;;;4994167;28;20232;-51
2023/04/21 03:07:22;;;;;;;7.10;5.50;;;20.20;59.40;;;;;;4979338;28;20252;-54
2023/04/21 03:09:55;;;;;;;7.05;5.50;;;20.20;59.40;;;;;;4974347;28;20201;-51
2023/04/21 03:12:31;;;;;;;6.15;5.53;;;20.20;59.40;;;;;;4974010;28;20253;-49
2023/04/21 03:15:07;;;;;;;6.72;5.45;;;20.20;59.40;;;;;;4974101;28;20272;-53
2023/04/21 03:17:37;;;;;;;6.88;5.70;;;20.20;59.40;;;;;;4974820;28;20268;-48
2023/04/21 03:20:10;;;;;;;6.63;5.78;;;20.20;59.30;;;;;;4974463;28;20659;-48
2023/04/21 03:22:41;;;;;;;7.43;6.20;;;20.20;59.40;;;;;;4974321;28;20194;-48
2023/04/21 03:25:14;;;;;;;7.43;6.18;;;20.20;59.40;;;;;;4977291;28;20597;-48
2023/04/21 03:27:44;;;;;;;7.13;5.53;;;20.20;59.40;;;;;;4974415;28;20206;-47
2023/04/21 03:30:15;;;;;;;8.77;6.70;;;20.20;59.40;;;;;;4974203;28;20205;-47
2023/04/21 03:32:46;;;;;;;10.70;7.70;;;20.20;59.40;;;;;;4983980;28;20201;-51
2023/04/21 03:35:17;;;;;;;6.95;6.13;;;20.20;59.40;;;;;;4992864;28;20221;-51
2023/04/21 03:37:48;;;;;;;6.85;5.68;;;20.20;59.40;;;;;;4977652;28;20218;-48
2023/04/21 03:40:21;;;;;;;7.30;6.07;;;20.20;59.50;;;;;;4973509;28;20293;-53
2023/04/21 03:42:51;;;;;;;7.05;6.32;;;20.20;59.50;;;;;;4973701;28;20198;-48
2023/04/21 03:45:22;;;;;;;7.63;6.38;;;20.20;59.50;;;;;;4973763;28;20237;-48
2023/04/21 03:47:56;;;;;;;6.88;6.05;;;20.20;59.50;;;;;;4974085;28;20620;-50
2023/04/21 03:50:27;;;;;;;7.60;6.47;;;20.20;59.50;;;;;;4974421;28;20198;-48
2023/04/21 03:52:58;;;;;;;7.85;6.50;;;20.20;59.50;;;;;;4974584;28;20241;-51
2023/04/21 03:55:31;;;;;;;7.20;6.15;;;20.20;59.60;;;;;;4974044;28;20214;-50
2023/04/21 03:58:01;;;;;;;7.07;5.95;;;20.20;59.60;;;;;;4965349;28;20223;-50
2023/04/21 04:00:32;;;;;;;7.32;5.85;;;20.20;59.60;;;;;;4954548;28;20258;-50
2023/04/21 04:03:03;;;;;;;6.85;6.13;;;20.20;59.60;;;;;;4978689;28;20205;-50
2023/04/21 04:05:33;;;;;;;6.97;6.25;;;20.20;59.50;;;;;;4980758;28;20237;-55
2023/04/21 04:08:04;;;;;;;7.78;6.13;;;20.20;59.60;;;;;;4968659;28;20202;-51
2023/04/21 04:10:37;;;;;;;6.35;5.75;;;20.20;59.70;;;;;;4965758;28;20544;-50
2023/04/21 04:13:07;;;;;;;7.32;6.28;;;20.20;59.70;;;;;;4972113;28;20202;-49
2023/04/21 04:15:38;;;;;;;6.60;5.90;;;20.20;59.70;;;;;;4972436;28;20222;-48
2023/04/21 04:18:09;;;;;;;6.93;5.85;;;20.20;59.60;;;;;;4973284;28;20218;-48
2023/04/21 04:20:39;;;;;;;6.30;5.57;;;20.20;59.70;;;;;;4987626;28;20205;-50
2023/04/21 04:23:10;;;;;;;6.35;5.20;;;20.20;59.70;;;;;;4982883;28;20194;-49
2023/04/21 04:25:42;;;;;;;6.45;5.72;;;20.20;59.70;;;;;;4969005;28;20226;-50
2023/04/21 04:28:14;;;;;;;8.25;6.35;;;20.20;60.10;;;;;;4963892;28;20202;-51
2023/04/21 04:30:45;;;;;;;8.10;6.18;;;20.20;60.50;;;;;;4973572;28;20208;-48
2023/04/21 04:33:15;;;;;;;10.25;6.20;;;20.30;60.90;;;;;;4977330;28;20576;-51
2023/04/21 04:35:46;;;;;;;10.63;6.75;;;20.30;61.10;;;;;;4973044;28;20218;-50
2023/04/21 04:38:17;;;;;;;9.43;5.90;;;20.30;61.50;;;;;;4973158;28;20328;-51
2023/04/21 04:40:56;;;;;;;8.70;6.40;;;20.30;61.90;;;;;;4972912;28;20201;-49
2023/04/21 04:43:27;;;;;;;9.10;5.75;;;20.30;62.10;;;;;;4970404;28;20229;-50
2023/04/21 04:45:57;;;;;;;8.82;6.32;;;20.30;62.20;;;;;;4953058;28;20832;-52
2023/04/21 04:48:28;;;;;;;9.27;6.55;;;20.30;62.10;;;;;;4964433;28;20200;-51
2023/04/21 04:50:59;;;;;;;8.52;6.20;;;20.30;62.30;;;;;;4972354;28;20206;-51
2023/04/21 04:53:31;;;;;;;11.15;6.63;;;20.30;62.30;;;;;;4972728;28;20556;-50
2023/04/21 04:56:04;;;;;;;12.77;6.30;;;20.30;62.30;;;;;;4972083;28;20205;-53
2023/04/21 04:58:35;;;;;;;7.28;5.90;;;20.40;62.30;;;;;;4971607;28;20222;-51
2023/04/21 05:01:14;;;;;;;11.18;7.70;;;20.40;62.30;;;;;;4972760;28;20202;-51
2023/04/21 05:03:46;;;;;;;9.85;6.05;;;20.40;62.30;;;;;;4973806;28;20198;-50
2023/04/21 05:06:16;;;;;;;9.18;6.45;;;20.40;62.20;;;;;;4973508;28;20554;-51
2023/04/21 05:08:47;;;;;;;10.27;6.32;;;20.40;62.10;;;;;;4971828;28;20205;-49
2023/04/21 05:11:19;;;;;;;8.70;5.97;;;20.40;62.00;;;;;;4972072;28;20198;-52
2023/04/21 05:13:50;;;;;;;9.18;6.22;;;20.40;62.20;;;;;;4971024;28;20602;-51
2023/04/21 05:16:21;;;;;;;11.35;7.82;;;20.40;62.00;;;;;;4971803;28;20205;-52
2023/04/21 05:18:52;;;;;;;9.20;6.82;;;20.40;62.00;;;;;;4974179;28;20221;-50
2023/04/21 05:21:27;;;;;;;9.85;6.93;;;20.40;62.10;;;;;;4971976;28;20609;-51
2023/04/21 05:23:58;;;;;;;10.60;7.55;;;20.40;62.10;;;;;;4972374;28;20225;-50
2023/04/21 05:26:32;;;;;;;8.48;6.50;;;20.40;62.10;;;;;;4972114;28;20198;-50
2023/04/21 05:29:02;;;;;;;9.15;6.95;;;20.40;62.10;;;;;;4971313;28;20682;-51
2023/04/21 05:31:33;;;;;;;9.48;6.93;;;20.40;62.00;;;;;;4972373;28;20569;-49
2023/04/21 05:34:04;;;;;;;9.35;6.70;;;20.40;61.90;;;;;;4986391;28;20214;-50
2023/04/21 05:36:35;;;;;;;9.48;6.35;;;20.40;61.90;;;;;;4991383;28;20198;-51
2023/04/21 05:39:06;;;;;;;10.32;6.63;;;20.40;61.80;;;;;;4977939;28;20252;-52
2023/04/21 05:41:38;;;;;;;8.00;6.32;;;20.40;61.80;;;;;;4971784;28;20217;-48
2023/04/21 05:44:09;;;;;;;7.53;5.60;;;20.40;61.70;;;;;;4971051;28;20224;-51
2023/04/21 05:46:39;;;;;;;8.00;5.57;;;20.40;61.70;;;;;;4971490;28;20597;-50
2023/04/21 05:49:10;;;;;;;6.65;5.72;;;20.40;61.60;;;;;;4971822;28;20198;-51
2023/04/21 05:51:41;;;;;;;6.93;5.63;;;20.40;61.60;;;;;;4968207;28;20651;-49
2023/04/21 05:54:11;;;;;;;7.85;6.22;;;20.40;61.60;;;;;;4971215;28;20217;-48
2023/04/21 05:56:44;;;;;;;8.20;5.97;;;20.40;61.60;;;;;;4972140;28;20199;-48
2023/04/21 05:59:15;;;;;;;9.32;5.70;;;20.40;61.50;;;;;;4971674;28;20194;-48
2023/04/21 06:01:45;;;;;;;7.22;5.78;;;20.40;61.40;;;;;;4973403;28;20365;-48
2023/04/21 06:04:16;;;;;;;9.15;5.45;;;20.40;61.30;;;;;;4970563;28;20225;-50
2023/04/21 06:06:47;;;;;;;7.82;5.63;;;20.40;61.20;;;;;;4974111;28;20667;-48
2023/04/21 06:09:17;;;;;;;6.65;5.63;;;20.40;61.10;;;;;;4971281;28;20662;-48
2023/04/21 06:11:50;;;;;;;8.02;5.45;;;20.40;61.10;;;;;;4971725;28;20205;-48
2023/04/21 06:14:21;;;;;;;6.97;4.97;;;20.40;61.10;;;;;;4971054;28;20268;-49
2023/04/21 06:16:52;;;;;;;8.10;5.75;;;20.40;61.00;;;;;;4986898;28;20205;-49
2023/04/21 06:19:22;;;;;;;7.50;5.75;;;20.40;61.10;;;;;;4977793;28;20194;-48
2023/04/21 06:21:53;;;;;;;6.55;5.47;;;20.40;61.20;;;;;;4968707;28;20198;-48
2023/04/21 06:24:25;;;;;;;5.70;4.80;;;20.40;61.30;;;;;;4969857;28;20230;-52
2023/04/21 06:26:58;;;;;;;6.60;5.15;;;20.40;61.20;;;;;;4974960;28;20739;-49
2023/04/21 06:29:29;;;;;;;8.52;5.40;;;20.40;61.10;;;;;;4975441;28;20201;-49
2023/04/21 06:31:59;;;;;;;7.65;5.63;;;20.40;60.90;;;;;;4978669;28;20202;-49
2023/04/21 06:34:30;;;;;;;7.47;5.32;;;20.30;60.80;;;;;;4981320;28;20214;-57
2023/04/21 06:37:01;;;;;;;3.65;3.33;;;20.30;61.00;;;;;;4971982;28;20273;-56
2023/04/21 06:39:32;;;;;;;3.42;3.13;;;20.30;61.40;;;;;;4975334;28;20198;-57
2023/04/21 06:42:04;;;;;;;3.13;2.55;;;20.30;61.90;;;;;;4974807;28;20204;-51
2023/04/21 06:44:36;;;;;;;4.70;3.25;;;20.30;62.50;;;;;;4975269;28;20698;-54
2023/04/21 06:47:07;;;;;;;4.22;3.30;;;20.30;62.70;;;;;;4974526;28;20208;-51
2023/04/21 06:49:38;;;;;;;5.30;2.85;;;20.30;63.10;;;;;;4974971;28;20194;-57
2023/04/21 06:52:09;;;;;;;13.95;9.65;;;20.30;63.30;;;;;;4974952;28;20567;-53
2023/04/21 06:54:39;;;;;;;10.48;8.38;;;20.30;63.50;;;;;;4974356;28;20224;-56
2023/04/21 06:57:14;;;;;;;8.50;5.93;;;20.30;63.80;;;;;;4974380;28;20346;-55
2023/04/21 06:59:44;;;;;;;5.15;3.83;;;20.30;64.10;;;;;;4974462;28;20189;-55
2023/04/21 07:02:15;;;;;;;3.25;2.95;;;20.30;64.10;;;;;;4975426;28;20194;-54
2023/04/21 07:04:46;;;;;;;10.80;9.70;;;20.30;64.30;;;;;;4974020;28;20226;-52
2023/04/21 07:07:16;;;;;;;19.33;17.67;;;20.30;64.40;;;;;;4974815;28;20202;-55
2023/04/21 07:09:47;;;;;;;20.30;18.58;;;20.30;64.50;;;;;;4973897;28;20194;-54
2023/04/21 07:12:20;;;;;;;16.33;15.05;;;20.30;64.50;;;;;;4974403;28;20234;-56
2023/04/21 07:14:50;;;;;;;14.13;12.98;;;20.30;64.60;;;;;;4974580;28;20218;-56
2023/04/21 07:17:21;;;;;;;9.10;8.40;;;20.30;64.60;;;;;;4974588;28;20659;-54
2023/04/21 07:19:52;;;;;;;5.63;5.18;;;20.30;64.60;;;;;;4975029;28;20194;-52
2023/04/21 07:22:22;;;;;;;7.70;7.03;;;20.30;64.70;;;;;;4974209;28;20206;-56
2023/04/21 07:24:53;;;;;;;9.60;8.70;;;20.20;64.60;;;;;;4975113;28;20234;-56
2023/04/21 07:27:25;;;;;;;8.13;7.15;;;20.30;64.80;;;;;;4974231;28;20198;-53
2023/04/21 07:29:56;;;;;;;11.20;9.05;;;20.30;64.80;;;;;;4974083;28;20678;-54
2023/04/21 07:32:26;;;;;;;11.60;10.48;;;20.20;64.80;;;;;;4965439;28;20198;-56
2023/04/21 07:34:57;;;;;;;11.00;10.00;;;20.20;64.80;;;;;;4963531;28;20218;-55
2023/04/21 07:37:28;;;;;;;10.68;9.20;;;20.20;64.90;;;;;;4964178;28;20286;-53
2023/04/21 07:39:58;;;;;;;7.50;6.80;;;20.20;64.90;;;;;;4965540;28;20190;-56
2023/04/21 07:42:31;;;;;;;12.68;10.60;;;20.20;65.00;;;;;;4964220;28;20199;-52
2023/04/21 07:45:02;;;;;;;7.88;6.70;;;20.20;65.10;;;;;;4972562;28;20218;-57
2023/04/21 07:47:32;;;;;;;8.13;7.32;;;20.20;65.00;;;;;;4974196;28;20206;-57
2023/04/21 07:50:03;;;;;;;9.77;7.88;;;20.20;65.10;;;;;;4974574;28;20198;-56
2023/04/21 07:52:34;;;;;;;8.27;6.75;;;20.20;65.00;;;;;;4974347;28;20209;-51
2023/04/21 07:55:04;;;;;;;8.23;7.43;;;20.20;65.10;;;;;;4974493;28;20221;-57
2023/04/21 07:57:37;;;;;;;7.13;6.15;;;20.20;65.00;;;;;;4974486;28;20206;-55
2023/04/21 08:00:10;;;;;;;7.22;6.18;;;20.20;65.10;;;;;;4970942;28;20683;-54
2023/04/21 08:02:40;;;;;;;6.18;5.47;;;20.30;65.10;;;;;;4981723;28;20233;-53
2023/04/21 08:05:11;;;;;;;7.00;5.65;;;20.20;65.00;;;;;;4967702;28;20693;-54
2023/04/21 08:07:42;;;;;;;10.80;7.85;;;20.20;65.00;;;;;;4966459;28;20674;-54
2023/04/21 08:10:13;;;;;;;11.15;8.43;;;20.20;65.00;;;;;;4964880;28;20198;-52
2023/04/21 08:12:46;;;;;;;7.45;5.80;;;20.20;65.00;;;;;;4963820;28;20199;-50
2023/04/21 08:15:16;;;;;;;3.22;2.90;;;20.20;65.10;;;;;;4962471;28;20219;-53
2023/04/21 08:17:47;;;;;;;2.30;2.10;;;20.10;65.10;;;;;;4962533;28;20197;-55
2023/04/21 08:20:17;;;;;;;4.70;2.55;;;20.10;65.20;;;;;;4963818;28;20198;-56
2023/04/21 08:22:48;;;;;;;2.85;2.15;;;20.10;65.30;;;;;;4964075;28;20199;-51
2023/04/21 08:25:19;;;;;;;3.60;2.58;;;20.10;65.40;;;;;;4959403;28;20699;-55
2023/04/21 08:27:51;;;;;;;3.80;3.40;;;20.00;65.50;;;;;;4961310;28;20191;-50
2023/04/21 08:30:24;;;;;;;10.05;5.82;;;20.00;65.60;;;;;;4962966;28;20604;-52
2023/04/21 08:32:54;;;;;;;9.65;7.53;;;20.00;65.70;;;;;;4984473;28;20232;-54
2023/04/21 08:35:25;;;;;;;9.82;8.45;;;20.00;65.70;;;;;;4992736;28;20605;-49
2023/04/21 08:37:56;;;;;;;10.70;8.45;;;19.90;65.70;;;;;;4992910;28;20591;-49
2023/04/21 08:40:33;;;;;;;9.75;7.40;;;19.90;65.70;;;;;;4993047;28;20197;-49
2023/04/21 08:43:07;;;;;;;7.18;6.25;;;19.90;65.60;;;;;;4971633;28;20596;-48
2023/04/21 08:45:38;;;;;;;8.13;6.30;;;19.90;65.40;;;;;;4957141;28;20297;-49
2023/04/21 08:48:09;;;;;;;6.93;6.22;;;19.90;65.30;;;;;;4953892;28;20211;-49
2023/04/21 08:50:41;;;;;;;7.25;6.43;;;19.90;65.40;;;;;;4961327;28;20289;-50
2023/04/21 08:53:12;;;;;;;7.63;6.43;;;19.90;65.40;;;;;;4953809;29;20206;-48
2023/04/21 08:55:43;;;;;;;6.95;6.25;;;19.90;65.40;;;;;;4961559;28;20221;-53
2023/04/21 08:58:16;;;;;;;7.30;6.25;;;19.90;65.30;;;;;;4971224;28;20222;-52
2023/04/21 09:00:46;;;;;;;7.75;6.72;;;20.00;65.30;;;;;;4971626;28;20195;-52
2023/04/21 09:03:24;;;;;;;7.10;6.40;;;20.00;65.30;;;;;;4982838;28;20213;-53
2023/04/21 09:06:05;;;;;;;7.45;6.55;;;20.00;65.30;;;;;;4972544;28;20269;-50
2023/04/21 09:08:38;;;;;;;7.32;6.43;;;20.00;65.30;;;;;;4972840;28;20230;-50
2023/04/21 09:11:09;;;;;;;6.90;6.18;;;20.00;65.20;;;;;;4972787;28;20206;-48
2023/04/21 09:13:43;;;;;;;6.82;6.13;;;20.00;65.10;;;;;;4970634;28;20205;-49
2023/04/21 09:16:19;;;;;;;6.72;5.97;;;20.00;65.00;;;;;;4971921;28;20197;-50
2023/04/21 09:18:51;;;;;;;7.22;6.35;;;20.00;65.00;;;;;;4971860;28;20225;-49
2023/04/21 09:21:22;;;;;;;7.25;6.47;;;20.00;65.00;;;;;;4972851;28;20206;-51
2023/04/21 09:23:54;;;;;;;7.22;6.22;;;20.00;65.00;;;;;;4974928;28;20202;-49
2023/04/21 09:26:25;;;;;;;8.32;6.28;;;20.00;65.00;;;;;;4972490;28;20289;-54
2023/04/21 09:28:58;;;;;;;7.18;6.47;;;20.00;65.00;;;;;;4971948;28;20206;-49
2023/04/21 09:31:29;;;;;;;8.10;6.40;;;20.00;65.00;;;;;;4971402;28;20198;-48
2023/04/21 09:34:00;;;;;;;8.57;6.55;;;20.00;65.00;;;;;;4952614;28;20226;-54
2023/04/21 09:36:32;;;;;;;7.65;6.53;;;20.00;65.00;;;;;;4968316;28;20706;-55
2023/04/21 09:39:04;;;;;;;7.63;6.93;;;20.00;65.00;;;;;;4971831;28;20264;-51
2023/04/21 09:41:35;;;;;;;7.03;6.00;;;20.00;65.00;;;;;;4970677;28;20197;-55
2023/04/21 09:44:08;;;;;;;7.05;6.28;;;20.00;64.90;;;;;;4971855;28;20214;-50
2023/04/21 09:46:39;;;;;;;7.55;6.45;;;20.00;64.90;;;;;;4979201;28;20196;-50
2023/04/21 09:49:11;;;;;;;6.97;6.28;;;20.00;64.80;;;;;;4991428;28;20216;-56
2023/04/21 09:51:44;;;;;;;7.32;6.40;;;20.00;64.80;;;;;;4973818;28;20681;-51
2023/04/21 09:54:19;;;;;;;7.80;6.40;;;20.00;64.70;;;;;;4970972;28;20221;-52
2023/04/21 09:56:53;;;;;;;6.50;5.82;;;20.00;64.60;;;;;;4971277;28;20566;-52
2023/04/21 09:59:30;;;;;;;7.82;6.53;;;20.00;64.60;;;;;;4954118;28;20277;-51
2023/04/21 10:02:03;;;;;;;6.22;5.63;;;20.00;64.50;;;;;;4982477;28;20213;-53
2023/04/21 10:04:34;;;;;;;7.68;6.25;;;20.00;64.50;;;;;;4996073;28;20267;-50
2023/04/21 10:07:06;;;;;;;7.45;6.35;;;20.00;64.50;;;;;;4976341;28;20194;-55
2023/04/21 10:09:43;;;;;;;6.82;5.80;;;20.00;64.60;;;;;;4980504;28;20209;-50
2023/04/21 10:12:14;;;;;;;6.25;5.65;;;20.00;64.50;;;;;;4959879;28;20202;-50
2023/04/21 10:14:47;;;;;;;7.22;6.15;;;20.10;64.60;;;;;;4958585;28;20247;-50
2023/04/21 10:17:17;;;;;;;7.28;5.63;;;20.10;64.60;;;;;;4960645;28;20207;-53
2023/04/21 10:19:53;;;;;;;7.40;5.85;;;20.10;64.60;;;;;;4981382;28;20234;-50
2023/04/21 10:22:33;;;;;;;7.03;5.85;;;20.10;64.60;;;;;;4978318;28;20295;-54
2023/04/21 10:25:05;;;;;;;7.18;5.90;;;20.10;64.60;;;;;;4977990;28;20237;-55
2023/04/21 10:27:37;;;;;;;6.88;5.78;;;20.10;64.60;;;;;;4977897;28;20205;-51
2023/04/21 10:30:27;;;;;;;7.13;6.05;;;20.10;64.50;;;;;;4977547;28;20194;-52
2023/04/21 10:33:06;;;;;;;7.07;5.65;;;20.10;64.50;;;;;;4990374;28;20197;-52
2023/04/21 10:36:00;;;;;;;7.22;5.90;;;20.10;64.30;;;;;;4990622;28;20217;-52
2023/04/21 10:38:41;;;;;;;6.53;5.43;;;20.10;64.30;;;;;;4974986;28;20186;-54
2023/04/21 10:41:31;;;;;;;7.15;5.65;;;20.10;64.20;;;;;;4974168;28;20288;-55
2023/04/21 10:44:02;;;;;;;6.78;5.50;;;20.10;64.20;;;;;;4978158;28;20201;-56
2023/04/21 10:46:38;;;;;;;9.48;6.65;;;20.10;64.10;;;;;;4978382;28;20213;-54
2023/04/21 10:49:10;;;;;;;6.22;5.50;;;20.10;64.20;;;;;;4977285;28;20259;-55
2023/04/21 10:52:11;;;;;;;6.95;5.32;;;20.10;64.20;;;;;;4977942;28;20202;-55
2023/04/21 10:54:45;;;;;;;6.28;5.32;;;20.10;64.20;;;;;;4971161;28;20241;-55
2023/04/21 10:57:17;;;;;;;6.60;5.18;;;20.10;64.20;;;;;;4977168;28;20197;-56
2023/04/21 10:59:49;;;;;;;7.18;5.50;;;20.10;64.20;;;;;;4977819;28;20237;-55
2023/04/21 11:02:22;;;;;;;5.97;5.15;;;20.10;64.20;;;;;;4984326;28;20543;-52
2023/04/21 11:04:54;;;;;;;5.90;4.57;;;20.10;64.20;;;;;;4996813;28;20228;-50
2023/04/21 11:07:26;;;;;;;5.88;5.25;;;20.10;64.20;;;;;;4978336;28;20229;-55
2023/04/21 11:10:00;;;;;;;6.00;5.28;;;20.00;64.10;;;;;;4977871;28;20205;-53
2023/04/21 11:12:31;;;;;;;6.60;5.82;;;20.00;64.10;;;;;;4973940;28;20202;-51
2023/04/21 11:15:04;;;;;;;6.32;5.20;;;20.10;64.10;;;;;;4973516;28;20694;-55
2023/04/21 11:17:38;;;;;;;6.47;5.20;;;20.10;64.00;;;;;;4955408;28;20205;-55
2023/04/21 11:20:09;;;;;;;5.63;4.53;;;20.10;64.00;;;;;;4955031;28;20223;-57
2023/04/21 11:22:40;;;;;;;5.88;5.28;;;20.10;64.00;;;;;;4954936;28;20202;-51
2023/04/21 11:25:19;;;;;;;6.10;4.60;;;20.10;63.90;;;;;;4993114;23;20224;-53
2023/04/21 11:27:58;;;;;;;6.88;5.18;;;20.10;63.90;;;;;;5012871;28;20216;-56
2023/04/21 11:30:34;;;;;;;6.35;4.85;;;20.10;64.00;;;;;;5013222;28;20220;-57
2023/04/21 11:33:07;;;;;;;5.93;5.25;;;20.10;63.90;;;;;;5012581;28;20247;-58
2023/04/21 11:35:42;;;;;;;5.30;4.57;;;20.10;63.90;;;;;;5012796;28;20213;-58
2023/04/21 11:38:13;;;;;;;5.60;4.72;;;20.10;63.90;;;;;;5012834;28;20234;-57
2023/04/21 11:40:50;;;;;;;5.50;4.75;;;20.00;63.80;;;;;;5004375;28;20252;-57
2023/04/21 11:43:23;;;;;;;5.70;4.78;;;20.10;63.90;;;;;;5013302;28;20578;-56
2023/04/21 11:45:54;;;;;;;5.88;4.25;;;20.00;63.80;;;;;;5013391;28;20213;-56
2023/04/21 11:48:35;;;;;;;5.00;4.47;;;20.00;63.80;;;;;;5012204;28;20197;-56
2023/04/21 11:51:05;;;;;;;5.25;4.43;;;20.00;63.80;;;;;;5012930;28;20192;-57
2023/04/21 11:53:36;;;;;;;5.68;4.78;;;20.00;63.80;;;;;;5012899;28;20285;-54
2023/04/21 11:56:07;;;;;;;5.10;4.60;;;20.00;63.80;;;;;;5011894;28;20216;-55
2023/04/21 11:58:37;;;;;;;5.47;4.78;;;20.00;63.80;;;;;;5013066;28;20205;-59
2023/04/21 12:01:11;;;;;;;5.55;4.30;;;20.00;63.80;;;;;;5012353;28;20224;-56
2023/04/21 12:03:43;;;;;;;4.70;4.20;;;20.00;63.80;;;;;;5010594;28;20208;-54
2023/04/21 12:06:21;;;;;;;5.57;4.53;;;20.00;63.80;;;;;;5012007;28;20581;-54
2023/04/21 12:08:57;;;;;;;5.15;4.32;;;20.00;63.80;;;;;;5010412;28;20354;-55
2023/04/21 12:11:29;;;;;;;5.38;4.85;;;20.00;63.70;;;;;;5009885;28;20683;-54
2023/04/21 12:14:00;;;;;;;5.25;4.00;;;20.00;63.70;;;;;;5011919;28;20279;-53
2023/04/21 12:16:31;;;;;;;4.88;4.18;;;20.00;63.70;;;;;;5011180;28;20197;-57
2023/04/21 12:19:04;;;;;;;4.97;4.03;;;20.00;63.70;;;;;;5011384;28;20201;-57
2023/04/21 12:21:34;;;;;;;5.20;4.38;;;20.00;63.70;;;;;;5011815;28;20594;-55
2023/04/21 12:24:05;;;;;;;5.50;4.28;;;20.00;63.70;;;;;;5025135;23;20562;-50
2023/04/21 12:26:36;;;;;;;5.30;4.22;;;20.00;63.70;;;;;;4998930;28;20213;-45
2023/04/21 12:29:06;;;;;;;4.95;4.18;;;20.00;63.70;;;;;;5002869;28;20193;-46
2023/04/21 12:31:37;;;;;;;4.82;4.22;;;20.00;63.70;;;;;;5002454;28;20190;-47
2023/04/21 12:34:10;;;;;;;4.72;3.55;;;20.00;63.70;;;;;;5001001;28;20594;-47
2023/04/21 12:36:40;;;;;;;4.47;3.85;;;20.00;63.70;;;;;;5001102;28;20195;-45
2023/04/21 12:39:12;;;;;;;4.18;3.78;;;20.00;63.80;;;;;;5003141;28;20189;-46
2023/04/21 12:41:42;;;;;;;4.75;3.83;;;20.00;63.80;;;;;;5002847;28;20547;-48
2023/04/21 12:44:13;;;;;;;5.35;4.05;;;20.00;63.80;;;;;;5000774;28;20189;-45
2023/04/21 12:46:44;;;;;;;4.90;4.00;;;20.00;63.80;;;;;;5002271;28;20705;-44
2023/04/21 12:49:16;;;;;;;4.47;3.85;;;20.00;63.70;;;;;;5003466;28;20653;-46
2023/04/21 12:51:47;;;;;;;4.20;3.80;;;20.00;63.70;;;;;;4999434;28;20189;-45
2023/04/21 12:54:18;;;;;;;4.47;3.83;;;20.00;63.70;;;;;;5001583;28;20628;-47
2023/04/21 12:56:48;;;;;;;5.03;3.80;;;20.00;63.60;;;;;;5002204;28;20208;-48
2023/04/21 12:59:19;;;;;;;4.55;4.00;;;20.00;63.60;;;;;;5003010;28;20208;-46
2023/04/21 13:01:50;;;;;;;5.45;4.78;;;20.00;63.60;;;;;;5000590;28;20211;-46
2023/04/21 13:04:22;;;;;;;5.60;4.60;;;19.90;63.50;;;;;;4999731;28;20222;-46
2023/04/21 13:06:53;;;;;;;5.03;4.05;;;20.00;64.40;;;;;;5004844;28;20585;-46
2023/04/21 13:09:24;;;;;;;4.70;4.13;;;19.90;63.60;;;;;;4999255;28;20189;-47